createdAt,value
2022-07-25T00:00:07.593Z,13.20
2022-07-25T00:01:10.530Z,9.55
2022-07-25T00:02:12.102Z,9.50
2022-07-25T00:03:15.328Z,9.45
2022-07-25T00:04:20.770Z,10.23
2022-07-25T00:05:24.545Z,12.37
2022-07-25T00:06:26.010Z,9.68
2022-07-25T00:07:27.937Z,9.25
2022-07-25T00:08:29.763Z,9.77
2022-07-25T00:09:31.253Z,9.82
2022-07-25T00:10:32.937Z,9.63
2022-07-25T00:11:34.574Z,10.45
2022-07-25T00:12:36.228Z,9.23
2022-07-25T00:13:37.777Z,11.02
2022-07-25T00:14:39.351Z,10.25
2022-07-25T00:15:40.846Z,10.20
2022-07-25T00:16:42.591Z,9.02
2022-07-25T00:17:45.969Z,9.43
2022-07-25T00:18:48.108Z,9.95
2022-07-25T00:19:49.732Z,10.07
2022-07-25T00:20:51.509Z,9.75
2022-07-25T00:21:53.040Z,11.27
2022-07-25T00:22:54.516Z,11.93
2022-07-25T00:23:56.072Z,9.75
2022-07-25T00:24:57.633Z,8.75
2022-07-25T00:26:00.294Z,10.25
2022-07-25T00:27:03.176Z,9.90
2022-07-25T00:28:04.849Z,10.32
2022-07-25T00:29:06.433Z,9.57
2022-07-25T00:30:08.570Z,10.10
2022-07-25T00:31:10.113Z,8.93
2022-07-25T00:32:11.694Z,12.30
2022-07-25T00:33:13.195Z,9.68
2022-07-25T00:34:14.922Z,9.50
2022-07-25T00:35:16.673Z,9.77
2022-07-25T00:36:18.486Z,9.77
2022-07-25T00:37:20.061Z,10.90
2022-07-25T00:38:21.830Z,11.18
2022-07-25T00:39:24.484Z,10.02
2022-07-25T00:40:26.239Z,9.80
2022-07-25T00:41:28.041Z,10.40
2022-07-25T00:42:30.465Z,9.60
2022-07-25T00:43:32.519Z,9.95
2022-07-25T00:44:34.155Z,10.70
2022-07-25T00:45:35.913Z,10.05
2022-07-25T00:46:39.537Z,11.50
2022-07-25T00:47:41.127Z,15.40
2022-07-25T00:48:43.456Z,9.38
2022-07-25T00:49:44.990Z,10.00
2022-07-25T00:50:46.647Z,10.00
2022-07-25T00:51:48.785Z,10.18
2022-07-25T00:52:50.565Z,10.38
2022-07-25T00:53:52.015Z,9.82
2022-07-25T00:54:53.692Z,9.63
2022-07-25T00:55:55.796Z,9.90
2022-07-25T00:56:57.362Z,9.80
2022-07-25T00:57:59.028Z,10.82
2022-07-25T00:59:00.787Z,9.30
2022-07-25T01:00:04.869Z,10.57
2022-07-25T01:01:06.857Z,10.25
2022-07-25T01:02:08.471Z,10.30
2022-07-25T01:03:10.089Z,10.40
2022-07-25T01:04:11.767Z,9.30
2022-07-25T01:05:13.331Z,10.20
2022-07-25T01:06:14.786Z,11.23
2022-07-25T01:07:17.341Z,10.00
2022-07-25T01:08:20.077Z,10.40
2022-07-25T01:09:22.922Z,9.70
2022-07-25T01:10:24.863Z,9.38
2022-07-25T01:11:26.660Z,12.13
2022-07-25T01:12:28.281Z,9.57
2022-07-25T01:13:33.591Z,9.65
2022-07-25T01:14:35.263Z,9.43
2022-07-25T01:15:36.784Z,9.98
2022-07-25T01:16:41.305Z,9.93
2022-07-25T01:17:42.933Z,10.33
2022-07-25T01:18:44.706Z,12.43
2022-07-25T01:19:47.213Z,9.60
2022-07-25T01:20:48.758Z,10.60
2022-07-25T01:21:50.556Z,10.63
2022-07-25T01:22:52.845Z,9.80
2022-07-25T01:23:54.512Z,10.27
2022-07-25T01:24:56.201Z,10.37
2022-07-25T01:25:57.997Z,10.73
2022-07-25T01:26:59.544Z,9.40
2022-07-25T01:28:01.004Z,9.40
2022-07-25T01:29:02.811Z,9.37
2022-07-25T01:30:06.339Z,11.43
2022-07-25T01:31:08.287Z,11.07
2022-07-25T01:32:11.719Z,15.43
2022-07-25T01:33:21.068Z,10.80
2022-07-25T01:34:23.316Z,10.57
2022-07-25T01:35:24.828Z,10.33
2022-07-25T01:36:26.437Z,9.50
2022-07-25T01:37:28.119Z,10.20
2022-07-25T01:38:29.603Z,9.57
2022-07-25T01:39:31.127Z,11.68
2022-07-25T01:40:33.183Z,10.30
2022-07-25T01:41:34.610Z,9.53
2022-07-25T01:42:36.421Z,10.00
2022-07-25T01:43:37.880Z,9.73
2022-07-25T01:44:39.684Z,9.90
2022-07-25T01:45:41.332Z,10.20
2022-07-25T01:46:44.729Z,10.93
2022-07-25T01:47:46.483Z,10.20
2022-07-25T01:48:48.076Z,8.97
2022-07-25T01:49:49.740Z,12.30
2022-07-25T01:50:51.285Z,12.80
2022-07-25T01:51:53.654Z,10.30
2022-07-25T01:52:55.703Z,10.27
2022-07-25T01:53:57.202Z,8.80
2022-07-25T01:54:59.458Z,9.70
2022-07-25T01:56:01.095Z,10.47
2022-07-25T01:57:05.197Z,10.57
2022-07-25T01:58:07.527Z,9.80
2022-07-25T01:59:09.556Z,9.80
2022-07-25T02:00:15.100Z,9.10
2022-07-25T02:01:16.690Z,9.90
2022-07-25T02:02:20.811Z,9.40
2022-07-25T02:03:31.565Z,10.40
2022-07-25T02:04:33.463Z,10.47
2022-07-25T02:05:36.824Z,9.50
2022-07-25T02:06:41.395Z,9.87
2022-07-25T02:07:42.883Z,10.10
2022-07-25T02:08:44.322Z,9.63
2022-07-25T02:09:45.806Z,10.70
2022-07-25T02:10:47.332Z,9.43
2022-07-25T02:11:48.826Z,12.18
2022-07-25T02:12:50.261Z,9.43
2022-07-25T02:13:51.766Z,11.23
2022-07-25T02:14:53.541Z,9.83
2022-07-25T02:15:55.140Z,10.87
2022-07-25T02:16:56.699Z,10.07
2022-07-25T02:17:58.206Z,13.00
2022-07-25T02:18:59.750Z,11.37
2022-07-25T02:20:01.373Z,8.80
2022-07-25T02:21:03.064Z,9.87
2022-07-25T02:22:04.754Z,10.67
2022-07-25T02:23:06.268Z,9.53
2022-07-25T02:24:08.715Z,9.70
2022-07-25T02:25:10.641Z,9.67
2022-07-25T02:26:13.472Z,10.40
2022-07-25T02:27:14.961Z,10.13
2022-07-25T02:28:16.522Z,10.97
2022-07-25T02:29:18.155Z,10.20
2022-07-25T02:30:23.856Z,9.27
2022-07-25T02:31:25.507Z,9.60
2022-07-25T02:32:27.486Z,11.63
2022-07-25T02:33:29.821Z,11.00
2022-07-25T02:34:31.335Z,9.77
2022-07-25T02:35:32.960Z,13.90
2022-07-25T02:36:34.429Z,8.93
2022-07-25T02:37:36.130Z,10.00
2022-07-25T02:38:38.028Z,9.97
2022-07-25T02:39:39.881Z,10.70
2022-07-25T02:40:41.658Z,10.40
2022-07-25T02:41:44.509Z,11.17
2022-07-25T02:42:46.078Z,11.73
2022-07-25T02:43:47.536Z,10.80
2022-07-25T02:44:49.028Z,10.23
2022-07-25T02:45:50.491Z,10.07
2022-07-25T02:46:52.335Z,10.23
2022-07-25T02:47:53.855Z,10.33
2022-07-25T02:48:55.403Z,9.50
2022-07-25T02:49:57.208Z,9.80
2022-07-25T02:50:58.769Z,10.70
2022-07-25T02:52:00.356Z,9.40
2022-07-25T02:53:01.910Z,9.97
2022-07-25T02:54:03.835Z,9.63
2022-07-25T02:55:09.655Z,16.63
2022-07-25T02:56:11.451Z,11.00
2022-07-25T02:57:16.167Z,11.35
2022-07-25T02:58:17.667Z,10.23
2022-07-25T02:59:19.766Z,10.70
2022-07-25T03:00:21.562Z,9.50
2022-07-25T03:01:23.065Z,10.60
2022-07-25T03:02:24.591Z,9.40
2022-07-25T03:03:26.042Z,10.43
2022-07-25T03:04:29.134Z,10.33
2022-07-25T03:05:30.659Z,9.97
2022-07-25T03:06:32.311Z,9.37
2022-07-25T03:07:34.862Z,11.00
2022-07-25T03:08:36.370Z,10.07
2022-07-25T03:09:38.192Z,10.47
2022-07-25T03:10:39.756Z,8.93
2022-07-25T03:11:41.206Z,10.97
2022-07-25T03:12:44.030Z,11.03
2022-07-25T03:13:45.885Z,10.97
2022-07-25T03:14:51.102Z,12.10
2022-07-25T03:15:52.601Z,10.70
2022-07-25T03:16:54.421Z,9.50
2022-07-25T03:17:56.078Z,11.73
2022-07-25T03:18:57.728Z,10.60
2022-07-25T03:19:59.640Z,11.53
2022-07-25T03:21:01.286Z,9.40
2022-07-25T03:22:02.843Z,9.90
2022-07-25T03:23:04.328Z,12.77
2022-07-25T03:24:06.516Z,11.33
2022-07-25T03:25:15.944Z,10.80
2022-07-25T03:26:23.653Z,10.00
2022-07-25T03:27:27.192Z,10.87
2022-07-25T03:28:28.975Z,9.30
2022-07-25T03:29:30.619Z,10.10
2022-07-25T03:30:32.272Z,9.53
2022-07-25T03:31:34.797Z,13.00
2022-07-25T03:32:36.832Z,10.93
2022-07-25T03:33:38.272Z,9.70
2022-07-25T03:34:39.768Z,10.37
2022-07-25T03:35:41.886Z,11.43
2022-07-25T03:36:43.438Z,11.20
2022-07-25T03:37:45.590Z,11.23
2022-07-25T03:38:47.092Z,10.33
2022-07-25T03:39:48.918Z,9.57
2022-07-25T03:40:50.870Z,11.17
2022-07-25T03:41:53.010Z,14.77
2022-07-25T03:42:54.758Z,10.53
2022-07-25T03:43:56.530Z,9.73
2022-07-25T03:44:58.352Z,15.73
2022-07-25T03:45:59.840Z,10.30
2022-07-25T03:47:02.606Z,12.60
2022-07-25T03:48:04.467Z,11.90
2022-07-25T03:49:06.016Z,11.20
2022-07-25T03:50:07.826Z,9.80
2022-07-25T03:51:09.552Z,11.43
2022-07-25T03:52:11.617Z,10.93
2022-07-25T03:53:13.550Z,10.30
2022-07-25T03:54:15.259Z,10.43
2022-07-25T03:55:16.780Z,11.00
2022-07-25T03:56:19.676Z,11.33
2022-07-25T03:57:21.598Z,11.07
2022-07-25T03:58:23.115Z,11.10
2022-07-25T03:59:24.614Z,9.87
2022-07-25T04:00:26.444Z,10.20
2022-07-25T04:01:28.711Z,12.60
2022-07-25T04:02:31.330Z,10.40
2022-07-25T04:03:33.508Z,10.83
2022-07-25T04:04:35.009Z,11.07
2022-07-25T04:05:36.480Z,11.23
2022-07-25T04:06:39.167Z,11.70
2022-07-25T04:07:40.958Z,11.87
2022-07-25T04:08:42.946Z,9.97
2022-07-25T04:09:44.992Z,11.60
2022-07-25T04:10:46.627Z,11.60
2022-07-25T04:11:48.485Z,10.60
2022-07-25T04:12:49.933Z,12.00
2022-07-25T04:13:52.020Z,10.47
2022-07-25T04:14:53.774Z,10.37
2022-07-25T04:15:56.159Z,10.20
2022-07-25T04:16:59.984Z,10.47
2022-07-25T04:18:01.598Z,10.23
2022-07-25T04:19:06.266Z,11.50
2022-07-25T04:20:08.865Z,11.60
2022-07-25T04:21:10.766Z,11.23
2022-07-25T04:22:12.248Z,11.73
2022-07-25T04:23:14.041Z,12.93
2022-07-25T04:24:15.548Z,11.33
2022-07-25T04:25:17.935Z,11.37
2022-07-25T04:26:19.887Z,10.97
2022-07-25T04:27:21.390Z,12.93
2022-07-25T04:28:22.927Z,16.15
2022-07-25T04:29:24.444Z,10.60
2022-07-25T04:30:25.934Z,11.17
2022-07-25T04:31:27.674Z,11.10
2022-07-25T04:32:29.243Z,11.10
2022-07-25T04:33:31.188Z,11.20
2022-07-25T04:34:33.053Z,11.90
2022-07-25T04:35:35.466Z,10.27
2022-07-25T04:36:36.952Z,10.53
2022-07-25T04:37:38.743Z,10.60
2022-07-25T04:38:40.453Z,11.77
2022-07-25T04:39:42.050Z,10.90
2022-07-25T04:40:43.861Z,10.67
2022-07-25T04:41:45.375Z,10.20
2022-07-25T04:42:46.966Z,14.17
2022-07-25T04:43:49.060Z,13.63
2022-07-25T04:44:54.230Z,16.77
2022-07-25T04:45:56.377Z,10.20
2022-07-25T04:46:58.042Z,10.60
2022-07-25T04:47:59.604Z,12.63
2022-07-25T04:49:01.410Z,11.73
2022-07-25T04:50:03.339Z,14.70
2022-07-25T04:51:04.961Z,9.77
2022-07-25T04:52:07.567Z,11.10
2022-07-25T04:53:09.930Z,10.10
2022-07-25T04:54:11.495Z,11.87
2022-07-25T04:55:13.486Z,11.40
2022-07-25T04:56:15.631Z,10.27
2022-07-25T04:57:17.166Z,14.80
2022-07-25T04:58:19.455Z,11.00
2022-07-25T04:59:21.347Z,10.17
2022-07-25T05:00:23.864Z,10.70
2022-07-25T05:01:25.445Z,11.45
2022-07-25T05:02:27.267Z,10.83
2022-07-25T05:03:28.864Z,10.73
2022-07-25T05:04:30.369Z,10.13
2022-07-25T05:05:33.364Z,13.10
2022-07-25T05:06:39.392Z,11.07
2022-07-25T05:07:42.627Z,10.73
2022-07-25T05:08:45.006Z,11.87
2022-07-25T05:09:47.394Z,10.20
2022-07-25T05:10:48.896Z,11.13
2022-07-25T05:11:55.687Z,10.57
2022-07-25T05:12:58.118Z,11.18
2022-07-25T05:13:59.879Z,12.07
2022-07-25T05:15:02.061Z,10.80
2022-07-25T05:16:03.743Z,11.43
2022-07-25T05:17:05.360Z,14.77
2022-07-25T05:18:06.824Z,12.73
2022-07-25T05:19:09.669Z,11.33
2022-07-25T05:20:14.620Z,10.80
2022-07-25T05:21:16.377Z,11.30
2022-07-25T05:22:17.872Z,12.27
2022-07-25T05:23:19.857Z,12.90
2022-07-25T05:24:23.067Z,12.03
2022-07-25T05:25:25.411Z,10.80
2022-07-25T05:26:27.301Z,13.93
2022-07-25T05:27:29.090Z,11.20
2022-07-25T05:28:30.648Z,10.40
2022-07-25T05:29:32.689Z,11.93
2022-07-25T05:30:39.573Z,11.97
2022-07-25T05:31:42.102Z,10.13
2022-07-25T05:32:44.181Z,14.10
2022-07-25T05:33:45.756Z,14.03
2022-07-25T05:34:47.183Z,10.80
2022-07-25T05:35:48.754Z,11.40
2022-07-25T05:36:50.438Z,10.85
2022-07-25T05:37:52.247Z,16.85
2022-07-25T05:38:54.424Z,16.00
2022-07-25T05:39:56.117Z,13.90
2022-07-25T05:40:57.604Z,11.27
2022-07-25T05:41:59.417Z,15.85
2022-07-25T05:43:03.276Z,13.13
2022-07-25T05:44:05.820Z,14.60
2022-07-25T05:45:08.118Z,19.80
2022-07-25T05:46:09.699Z,11.80
2022-07-25T05:47:12.240Z,11.02
2022-07-25T05:48:14.860Z,25.50
2022-07-25T05:49:16.628Z,12.13
2022-07-25T05:50:18.242Z,17.55
2022-07-25T05:51:19.734Z,15.18
2022-07-25T05:52:21.745Z,11.23
2022-07-25T05:53:23.394Z,12.45
2022-07-25T05:54:25.034Z,18.85
2022-07-25T05:55:29.364Z,15.52
2022-07-25T05:56:31.133Z,16.75
2022-07-25T05:57:33.005Z,12.07
2022-07-25T05:58:34.560Z,10.82
2022-07-25T05:59:36.595Z,13.20
2022-07-25T06:00:39.279Z,15.40
2022-07-25T06:01:40.847Z,14.35
2022-07-25T06:02:42.620Z,20.17
2022-07-25T06:03:44.635Z,15.45
2022-07-25T06:04:46.409Z,9.98
2022-07-25T06:05:48.147Z,13.70
2022-07-25T06:08:17.673Z,17.55
2022-07-25T06:09:21.723Z,13.90
2022-07-25T06:10:23.611Z,17.10
2022-07-25T06:11:30.614Z,12.13
2022-07-25T06:12:33.715Z,14.00
2022-07-25T06:13:39.887Z,12.40
2022-07-25T06:14:42.253Z,13.70
2022-07-25T06:15:44.379Z,11.35
2022-07-25T06:16:47.421Z,18.63
2022-07-25T06:17:49.164Z,13.68
2022-07-25T06:18:51.032Z,11.82
2022-07-25T06:19:52.539Z,11.98
2022-07-25T06:20:54.414Z,15.35
2022-07-25T06:21:56.158Z,10.00
2022-07-25T06:22:57.661Z,11.45
2022-07-25T06:23:59.749Z,10.02
2022-07-25T06:25:04.935Z,11.60
2022-07-25T06:26:10.469Z,10.90
2022-07-25T06:27:14.936Z,10.43
2022-07-25T06:28:18.835Z,13.05
2022-07-25T06:29:20.383Z,11.30
2022-07-25T06:30:22.068Z,14.82
2022-07-25T06:31:23.849Z,12.05
2022-07-25T06:32:25.657Z,14.55
2022-07-25T06:33:27.153Z,11.27
2022-07-25T06:34:29.174Z,10.95
2022-07-25T06:35:30.690Z,14.80
2022-07-25T06:36:33.116Z,10.75
2022-07-25T06:37:38.663Z,12.95
2022-07-25T06:38:40.391Z,16.00
2022-07-25T06:39:45.643Z,10.93
2022-07-25T06:40:48.107Z,10.90
2022-07-25T06:41:49.869Z,10.88
2022-07-25T06:42:52.402Z,10.23
2022-07-25T06:43:54.388Z,11.65
2022-07-25T06:44:56.254Z,14.63
2022-07-25T06:45:58.015Z,10.43
2022-07-25T06:47:03.041Z,13.38
2022-07-25T06:48:05.257Z,10.88
2022-07-25T06:49:07.154Z,14.25
2022-07-25T06:50:12.305Z,10.35
2022-07-25T06:51:13.910Z,11.73
2022-07-25T06:52:16.001Z,11.23
2022-07-25T06:53:17.910Z,11.80
2022-07-25T06:54:19.520Z,10.13
2022-07-25T06:55:21.229Z,13.98
2022-07-25T06:56:22.946Z,9.02
2022-07-25T06:57:24.408Z,9.48
2022-07-25T06:58:26.025Z,9.27
2022-07-25T06:59:27.616Z,9.82
2022-07-25T07:00:29.392Z,10.45
2022-07-25T07:01:31.360Z,9.27
2022-07-25T07:02:33.452Z,11.02
2022-07-25T07:03:38.506Z,9.27
2022-07-25T07:04:40.164Z,10.10
2022-07-25T07:05:42.089Z,12.27
2022-07-25T07:06:44.014Z,9.50
2022-07-25T07:07:47.925Z,8.90
2022-07-25T07:08:49.765Z,8.48
2022-07-25T07:09:51.247Z,8.77
2022-07-25T07:10:52.757Z,10.18
2022-07-25T07:11:54.288Z,9.15
2022-07-25T07:13:11.032Z,9.15
2022-07-25T07:14:14.212Z,7.95
2022-07-25T07:15:16.496Z,9.02
2022-07-25T07:16:18.093Z,8.77
2022-07-25T07:17:19.960Z,8.95
2022-07-25T07:18:21.540Z,9.25
2022-07-25T07:19:23.007Z,9.05
2022-07-25T07:20:25.030Z,9.40
2022-07-25T07:21:26.581Z,9.07
2022-07-25T07:22:28.609Z,9.05
2022-07-25T07:23:31.606Z,8.77
2022-07-25T07:24:34.313Z,8.65
2022-07-25T07:25:36.139Z,8.43
2022-07-25T07:26:38.714Z,9.40
2022-07-25T07:27:40.413Z,8.70
2022-07-25T07:28:42.098Z,8.60
2022-07-25T07:29:43.619Z,9.38
2022-07-25T07:31:15.200Z,8.20
2022-07-25T07:32:07.269Z,8.00
2022-07-25T07:33:08.961Z,8.30
2022-07-25T07:34:11.457Z,9.23
2022-07-25T07:35:19.212Z,8.05
2022-07-25T07:36:22.010Z,8.88
2022-07-25T07:37:23.843Z,8.75
2022-07-25T07:38:26.121Z,8.73
2022-07-25T07:39:27.680Z,8.82
2022-07-25T07:40:29.326Z,9.48
2022-07-25T07:41:31.155Z,8.52
2022-07-25T07:42:43.490Z,8.80
2022-07-25T07:43:45.477Z,7.32
2022-07-25T07:44:47.062Z,8.40
2022-07-25T07:45:49.022Z,8.25
2022-07-25T07:46:50.648Z,9.98
2022-07-25T07:47:53.963Z,8.48
2022-07-25T07:48:56.078Z,8.07
2022-07-25T07:49:57.929Z,8.23
2022-07-25T07:51:01.475Z,8.55
2022-07-25T07:52:03.190Z,8.40
2022-07-25T07:53:05.222Z,8.48
2022-07-25T07:54:25.546Z,11.18
2022-07-25T07:55:45.773Z,8.80
2022-07-25T07:56:47.588Z,7.78
2022-07-25T07:57:49.087Z,7.70
2022-07-25T07:58:50.785Z,7.60
2022-07-25T07:59:52.334Z,8.18
2022-07-25T08:00:54.363Z,8.93
2022-07-25T08:01:55.871Z,8.73
2022-07-25T08:02:59.156Z,8.27
2022-07-25T08:04:00.811Z,8.07
2022-07-25T08:05:02.823Z,9.07
2022-07-25T08:06:05.057Z,7.80
2022-07-25T08:07:06.741Z,7.65
2022-07-25T08:08:10.056Z,8.02
2022-07-25T08:09:11.583Z,8.15
2022-07-25T08:10:13.799Z,7.75
2022-07-25T08:11:15.418Z,8.25
2022-07-25T08:12:16.888Z,9.32
2022-07-25T08:13:23.642Z,8.48
2022-07-25T08:14:25.116Z,8.32
2022-07-25T08:15:26.940Z,7.95
2022-07-25T08:16:28.683Z,8.25
2022-07-25T08:17:30.626Z,8.00
2022-07-25T08:18:34.033Z,8.20
2022-07-25T08:19:35.661Z,7.30
2022-07-25T08:20:38.730Z,7.63
2022-07-25T08:21:41.008Z,17.60
2022-07-25T08:22:44.690Z,8.25
2022-07-25T08:23:47.219Z,7.97
2022-07-25T08:24:48.746Z,6.90
2022-07-25T08:25:50.277Z,7.68
2022-07-25T08:26:51.770Z,8.02
2022-07-25T08:27:54.833Z,7.20
2022-07-25T08:29:17.739Z,6.60
2022-07-25T08:30:18.243Z,7.22
2022-07-25T08:31:20.021Z,9.60
2022-07-25T08:32:21.702Z,6.95
2022-07-25T08:33:23.170Z,6.82
2022-07-25T08:34:24.677Z,7.45
2022-07-25T08:35:28.864Z,6.68
2022-07-25T08:36:34.591Z,7.68
2022-07-25T08:37:36.485Z,7.75
2022-07-25T08:38:38.066Z,7.15
2022-07-25T08:39:41.615Z,6.95
2022-07-25T08:40:43.256Z,7.38
2022-07-25T08:41:45.792Z,8.23
2022-07-25T08:42:48.390Z,7.10
2022-07-25T08:43:50.882Z,6.75
2022-07-25T08:44:58.884Z,8.77
2022-07-25T08:46:01.299Z,8.63
2022-07-25T08:47:03.234Z,7.20
2022-07-25T08:48:05.243Z,7.47
2022-07-25T08:49:08.240Z,6.90
2022-07-25T08:50:12.166Z,7.07
2022-07-25T08:51:14.906Z,7.35
2022-07-25T08:52:18.307Z,7.78
2022-07-25T08:53:37.140Z,7.68
2022-07-25T08:54:39.093Z,10.90
2022-07-25T08:55:43.095Z,7.93
2022-07-25T08:56:45.422Z,7.30
2022-07-25T08:57:52.559Z,7.90
2022-07-25T08:58:54.028Z,7.63
2022-07-25T08:59:59.165Z,7.32
2022-07-25T09:01:00.892Z,7.45
2022-07-25T09:02:10.845Z,6.95
2022-07-25T09:03:13.317Z,7.18
2022-07-25T09:04:15.394Z,7.78
2022-07-25T09:05:19.570Z,7.60
2022-07-25T09:06:22.578Z,7.10
2022-07-25T09:07:38.012Z,7.90
2022-07-25T09:08:51.052Z,7.13
2022-07-25T09:09:52.517Z,7.35
2022-07-25T09:10:54.546Z,6.47
2022-07-25T09:11:56.089Z,7.10
2022-07-25T09:13:01.979Z,7.70
2022-07-25T09:14:10.829Z,7.22
2022-07-25T09:15:30.636Z,7.68
2022-07-25T09:16:41.640Z,7.47
2022-07-25T09:17:50.989Z,7.47
2022-07-25T09:18:52.911Z,6.70
2022-07-25T09:19:56.592Z,7.20
2022-07-25T09:21:00.766Z,10.27
2022-07-25T09:22:04.779Z,7.03
2022-07-25T09:23:07.176Z,8.07
2022-07-25T09:24:10.290Z,8.15
2022-07-25T09:25:26.703Z,7.07
2022-07-25T09:26:28.248Z,7.35
2022-07-25T09:27:34.495Z,8.20
2022-07-25T09:28:47.204Z,7.35
2022-07-25T09:29:49.487Z,7.97
2022-07-25T09:31:00.506Z,7.28
2022-07-25T09:32:13.406Z,6.88
2022-07-25T09:33:15.560Z,7.65
2022-07-25T09:34:30.178Z,6.97
2022-07-25T09:35:38.843Z,7.00
2022-07-25T09:36:54.644Z,7.40
2022-07-25T09:38:14.185Z,7.65
2022-07-25T09:39:15.743Z,7.70
2022-07-25T09:40:17.382Z,7.45
2022-07-25T09:41:19.844Z,7.70
2022-07-25T09:42:25.913Z,7.00
2022-07-25T09:43:44.563Z,7.13
2022-07-25T09:45:09.992Z,7.22
2022-07-25T09:46:12.724Z,7.18
2022-07-25T09:47:16.434Z,7.18
2022-07-25T09:48:21.183Z,7.18
2022-07-25T09:49:22.719Z,8.25
2022-07-25T09:50:25.805Z,7.28
2022-07-25T09:51:29.116Z,7.80
2022-07-25T09:52:30.782Z,7.60
2022-07-25T09:53:32.738Z,11.50
2022-07-25T09:54:35.118Z,7.65
2022-07-25T09:55:36.565Z,8.13
2022-07-25T09:56:38.182Z,7.68
2022-07-25T09:57:40.283Z,7.97
2022-07-25T09:58:41.836Z,8.07
2022-07-25T09:59:44.798Z,8.90
2022-07-25T10:00:46.979Z,9.60
2022-07-25T10:02:06.183Z,7.78
2022-07-25T10:03:07.611Z,7.90
2022-07-25T10:04:22.050Z,7.45
2022-07-25T10:05:47.105Z,6.95
2022-07-25T10:07:04.135Z,7.15
2022-07-25T10:08:08.567Z,7.20
2022-07-25T10:09:14.637Z,7.80
2022-07-25T10:10:29.408Z,7.63
2022-07-25T10:11:31.842Z,9.15
2022-07-25T10:12:33.505Z,7.38
2022-07-25T10:13:38.242Z,7.35
2022-07-25T10:14:40.339Z,8.35
2022-07-25T10:15:44.620Z,7.40
2022-07-25T10:16:47.536Z,7.13
2022-07-25T10:17:50.298Z,7.75
2022-07-25T10:19:00.722Z,8.73
2022-07-25T10:20:04.263Z,7.43
2022-07-25T10:21:25.527Z,8.23
2022-07-25T10:23:00.333Z,7.28
2022-07-25T10:24:03.663Z,8.85
2022-07-25T10:25:16.389Z,7.32
2022-07-25T10:26:19.519Z,7.45
2022-07-25T10:27:24.855Z,8.40
2022-07-25T10:28:53.967Z,7.65
2022-07-25T10:29:55.604Z,8.05
2022-07-25T10:31:00.116Z,7.78
2022-07-25T10:32:10.445Z,6.93
2022-07-25T10:33:17.553Z,7.55
2022-07-25T10:34:30.837Z,8.15
2022-07-25T10:35:33.573Z,8.07
2022-07-25T10:36:47.340Z,7.68
2022-07-25T10:37:51.971Z,7.63
2022-07-25T10:38:57.615Z,7.50
2022-07-25T10:39:59.458Z,7.43
2022-07-25T10:41:03.337Z,7.05
2022-07-25T10:42:05.614Z,6.85
2022-07-25T10:43:15.129Z,7.47
2022-07-25T10:44:16.843Z,6.85
2022-07-25T10:45:18.651Z,7.40
2022-07-25T10:46:23.080Z,7.60
2022-07-25T10:47:27.400Z,7.72
2022-07-25T10:48:31.706Z,7.00
2022-07-25T10:49:37.508Z,8.63
2022-07-25T10:51:03.756Z,7.70
2022-07-25T10:52:05.784Z,7.18
2022-07-25T10:53:09.213Z,16.27
2022-07-25T10:54:17.768Z,7.57
2022-07-25T10:55:24.196Z,6.90
2022-07-25T10:56:28.189Z,6.90
2022-07-25T10:57:32.270Z,7.10
2022-07-25T10:58:52.249Z,9.27
2022-07-25T10:59:54.308Z,6.95
2022-07-25T11:00:56.252Z,7.00
2022-07-25T11:01:58.921Z,7.68
2022-07-25T11:03:01.096Z,7.55
2022-07-25T11:04:05.301Z,7.10
2022-07-25T11:05:07.375Z,6.75
2022-07-25T11:06:09.115Z,6.63
2022-07-25T11:07:15.561Z,6.55
2022-07-25T11:08:22.186Z,6.65
2022-07-25T11:09:27.730Z,6.70
2022-07-25T11:10:30.139Z,6.50
2022-07-25T11:11:40.352Z,6.45
2022-07-25T11:12:45.391Z,6.25
2022-07-25T11:13:48.329Z,8.20
2022-07-25T11:14:49.943Z,7.10
2022-07-25T11:15:51.714Z,7.28
2022-07-25T11:16:56.131Z,7.88
2022-07-25T11:17:57.789Z,9.00
2022-07-25T11:18:59.266Z,6.03
2022-07-25T11:20:07.032Z,6.60
2022-07-25T11:21:09.654Z,7.78
2022-07-25T11:22:11.748Z,6.88
2022-07-25T11:23:22.134Z,6.47
2022-07-25T11:24:38.727Z,6.38
2022-07-25T11:25:42.460Z,7.35
2022-07-25T11:26:52.461Z,7.22
2022-07-25T11:27:58.921Z,6.45
2022-07-25T11:29:00.798Z,7.10
2022-07-25T11:30:08.630Z,6.72
2022-07-25T11:31:11.086Z,7.57
2022-07-25T11:32:14.021Z,6.35
2022-07-25T11:33:17.718Z,7.13
2022-07-25T11:34:24.221Z,6.65
2022-07-25T11:35:31.669Z,6.28
2022-07-25T11:36:34.234Z,8.15
2022-07-25T11:37:39.147Z,6.97
2022-07-25T11:38:41.548Z,6.00
2022-07-25T11:39:45.238Z,6.78
2022-07-25T11:40:47.048Z,6.60
2022-07-25T11:42:05.311Z,6.03
2022-07-25T11:43:07.501Z,6.78
2022-07-25T11:44:09.391Z,6.30
2022-07-25T11:45:21.015Z,7.10
2022-07-25T11:46:22.554Z,6.95
2022-07-25T11:47:33.656Z,6.20
2022-07-25T11:48:39.776Z,6.57
2022-07-25T11:49:46.676Z,6.90
2022-07-25T11:50:48.263Z,6.43
2022-07-25T11:51:49.792Z,8.13
2022-07-25T11:53:00.476Z,6.40
2022-07-25T11:54:10.600Z,6.80
2022-07-25T11:55:16.242Z,6.55
2022-07-25T11:56:41.946Z,6.63
2022-07-25T11:57:47.511Z,6.90
2022-07-25T11:58:59.744Z,6.63
2022-07-25T12:00:05.128Z,6.22
2022-07-25T12:01:16.593Z,6.75
2022-07-25T12:02:26.005Z,6.80
2022-07-25T12:03:38.025Z,6.60
2022-07-25T12:04:39.588Z,10.68
2022-07-25T12:05:41.530Z,6.43
2022-07-25T12:06:45.470Z,6.43
2022-07-25T12:07:53.021Z,6.45
2022-07-25T12:08:54.614Z,6.82
2022-07-25T12:09:57.389Z,6.90
2022-07-25T12:10:58.908Z,6.68
2022-07-25T12:12:04.821Z,6.78
2022-07-25T12:13:08.724Z,6.20
2022-07-25T12:14:11.051Z,8.48
2022-07-25T12:15:14.053Z,8.30
2022-07-25T12:16:17.125Z,7.15
2022-07-25T12:17:19.081Z,6.45
2022-07-25T12:18:20.970Z,6.45
2022-07-25T12:19:23.039Z,7.53
2022-07-25T12:20:35.052Z,6.20
2022-07-25T12:21:37.635Z,5.80
2022-07-25T12:22:39.128Z,6.43
2022-07-25T12:23:42.649Z,6.22
2022-07-25T12:24:44.121Z,6.53
2022-07-25T12:25:46.710Z,6.63
2022-07-25T12:26:48.434Z,6.78
2022-07-25T12:27:51.107Z,6.47
2022-07-25T12:28:52.858Z,6.57
2022-07-25T12:29:54.490Z,6.40
2022-07-25T12:30:56.843Z,6.53
2022-07-25T12:31:58.507Z,7.10
2022-07-25T12:33:01.474Z,5.80
2022-07-25T12:34:03.671Z,7.15
2022-07-25T12:35:07.656Z,6.28
2022-07-25T12:36:12.935Z,5.80
2022-07-25T12:37:14.511Z,6.40
2022-07-25T12:38:16.046Z,6.63
2022-07-25T12:39:17.662Z,6.90
2022-07-25T12:40:20.078Z,6.05
2022-07-25T12:41:23.863Z,6.20
2022-07-25T12:42:26.099Z,6.88
2022-07-25T12:43:27.805Z,7.40
2022-07-25T12:44:29.526Z,7.32
2022-07-25T12:45:31.516Z,6.88
2022-07-25T12:46:33.120Z,6.95
2022-07-25T12:47:35.017Z,6.80
2022-07-25T12:48:37.392Z,7.05
2022-07-25T12:49:38.966Z,6.70
2022-07-25T12:50:41.665Z,6.45
2022-07-25T12:51:43.291Z,6.72
2022-07-25T12:52:46.299Z,5.80
2022-07-25T12:53:47.750Z,6.85
2022-07-25T12:54:49.414Z,6.45
2022-07-25T12:56:17.771Z,6.60
2022-07-25T12:57:20.899Z,6.88
2022-07-25T12:58:22.557Z,7.22
2022-07-25T12:59:24.046Z,6.30
2022-07-25T13:00:26.021Z,7.35
2022-07-25T13:01:27.907Z,5.90
2022-07-25T13:02:29.460Z,8.90
2022-07-25T13:03:31.045Z,6.43
2022-07-25T13:04:32.869Z,5.85
2022-07-25T13:05:34.405Z,6.88
2022-07-25T13:06:38.744Z,6.85
2022-07-25T13:07:40.727Z,6.38
2022-07-25T13:08:42.252Z,6.60
2022-07-25T13:09:43.859Z,6.93
2022-07-25T13:10:45.693Z,6.20
2022-07-25T13:11:47.486Z,6.82
2022-07-25T13:12:49.152Z,5.65
2022-07-25T13:13:50.874Z,6.18
2022-07-25T13:14:52.568Z,7.10
2022-07-25T13:15:54.406Z,5.70
2022-07-25T13:16:57.023Z,6.07
2022-07-25T13:17:58.677Z,6.20
2022-07-25T13:19:00.476Z,6.65
2022-07-25T13:20:02.023Z,6.43
2022-07-25T13:21:03.565Z,6.45
2022-07-25T13:22:06.114Z,6.93
2022-07-25T13:23:07.888Z,8.95
2022-07-25T13:24:10.219Z,5.93
2022-07-25T13:25:12.084Z,6.07
2022-07-25T13:26:13.653Z,6.03
2022-07-25T13:27:15.077Z,7.30
2022-07-25T13:28:17.094Z,6.70
2022-07-25T13:29:19.286Z,6.00
2022-07-25T13:30:22.517Z,6.20
2022-07-25T13:31:24.799Z,6.47
2022-07-25T13:32:28.355Z,6.28
2022-07-25T13:33:29.914Z,5.85
2022-07-25T13:34:31.700Z,5.93
2022-07-25T13:35:38.827Z,6.70
2022-07-25T13:36:41.199Z,6.45
2022-07-25T13:37:42.784Z,6.20
2022-07-25T13:38:45.407Z,7.00
2022-07-25T13:39:46.933Z,5.63
2022-07-25T13:40:48.419Z,10.20
2022-07-25T13:41:49.959Z,8.18
2022-07-25T13:42:51.393Z,6.78
2022-07-25T13:43:52.921Z,6.43
2022-07-25T13:44:54.381Z,6.10
2022-07-25T13:45:55.927Z,6.18
2022-07-25T13:46:58.711Z,5.50
2022-07-25T13:48:27.896Z,5.88
2022-07-25T13:49:22.032Z,5.80
2022-07-25T13:50:23.834Z,5.88
2022-07-25T13:51:25.617Z,6.63
2022-07-25T13:52:27.170Z,6.47
2022-07-25T13:53:30.477Z,5.82